Freistatt, Missouri
Current Conditions -  °F | °C
As of 7:15 PM on Tuesday 27 Jan 2015 (Local Time) from KHFJ Reporting Station
Haze Haze  
Wind Chill: 52°   Ceiling: Unl
Heat Index: 52°   Visibility: 0mi
Dew Point: 30°   Wind: 8mph
Humidity: 44%   Direction: 110°ESE
Pressure: 30.09"   Gusts: NA
Location:  37.02°N, 93.9°W
Report Text: KHFJ 280115Z AUTO 11007KT M1/4SM HZ VV000 11/M01 A3009 RMK AO2
Loading
Personal Weather Stations






























Interactive Weather Map New forecast layout! Learn more

10-Day Weather Forecast

Advertisements
Track Severe Weather on mobile